createdAt,value
2022-12-15T00:03:11.843Z,98748.81
2022-12-15T00:07:32.406Z,98754.19
2022-12-15T00:11:52.680Z,98756.34
2022-12-15T00:16:12.858Z,98759.16
2022-12-15T00:20:33.460Z,98763.69
2022-12-15T00:24:53.682Z,98751.59
2022-12-15T00:29:14.405Z,98750.13
2022-12-15T00:33:35.270Z,98732.81
2022-12-15T00:37:55.706Z,98745.19
2022-12-15T00:41:57.432Z,98749.88
2022-12-15T00:46:18.067Z,98759.69
2022-12-15T00:50:38.208Z,98757.53
2022-12-15T00:54:58.532Z,98775.66
2022-12-15T00:59:18.746Z,98769.72
2022-12-15T01:03:41.305Z,98776.69
2022-12-15T01:08:01.761Z,98770.34
2022-12-15T01:12:23.104Z,98778.16
2022-12-15T01:16:43.668Z,98788.25
2022-12-15T01:20:45.609Z,98798.31
2022-12-15T01:24:47.341Z,98810.38
2022-12-15T01:28:49.173Z,98807.34
2022-12-15T01:32:51.074Z,98807.00
2022-12-15T01:36:52.999Z,98821.13
2022-12-15T01:41:00.374Z,98825.78
2022-12-15T01:45:23.847Z,98828.38
2022-12-15T01:49:28.082Z,98831.91
2022-12-15T01:53:33.987Z,98838.34
2022-12-15T01:57:36.579Z,98833.09
2022-12-15T02:06:40.253Z,98852.75
2022-12-15T02:11:06.624Z,98847.19
2022-12-15T02:15:17.070Z,98840.09
2022-12-15T02:20:05.327Z,98861.00
2022-12-15T02:24:45.975Z,98863.06
2022-12-15T02:29:29.892Z,98873.72
2022-12-15T02:33:32.044Z,98875.44
2022-12-15T02:37:36.657Z,98865.63
2022-12-15T02:41:41.858Z,98866.03
2022-12-15T02:46:23.915Z,98878.91
2022-12-15T02:50:47.080Z,98883.78
2022-12-15T02:55:12.492Z,98888.69
2022-12-15T02:59:25.189Z,98888.44
2022-12-15T03:03:33.963Z,98894.16
2022-12-15T03:07:49.871Z,98893.16
2022-12-15T03:11:58.566Z,98902.25
2022-12-15T03:16:07.624Z,98897.75
2022-12-15T03:20:10.221Z,98912.63
2022-12-15T03:24:12.259Z,98924.63
2022-12-15T03:28:14.123Z,98932.41
2022-12-15T03:32:17.290Z,98919.84
2022-12-15T03:36:19.147Z,98939.34
2022-12-15T03:40:20.962Z,98930.63
2022-12-15T03:44:22.864Z,98960.19
2022-12-15T03:48:24.651Z,98943.50
2022-12-15T03:52:26.464Z,98933.81
2022-12-15T03:56:28.311Z,98937.91
2022-12-15T04:00:30.297Z,98953.56
2022-12-15T04:04:32.273Z,98946.28
2022-12-15T04:08:34.366Z,98966.63
2022-12-15T04:12:39.616Z,98948.84
2022-12-15T04:16:41.513Z,98980.56
2022-12-15T04:20:43.455Z,98989.38
2022-12-15T04:25:06.085Z,98990.88
2022-12-15T04:29:26.378Z,98988.97
2022-12-15T04:33:46.478Z,98995.56
2022-12-15T04:38:07.130Z,99006.97
2022-12-15T04:42:27.695Z,99017.16
2022-12-15T04:46:47.708Z,99026.56
2022-12-15T04:51:08.594Z,99040.59
2022-12-15T04:55:28.908Z,99028.66
2022-12-15T04:59:49.287Z,99042.81
2022-12-15T05:04:10.090Z,99049.63
2022-12-15T05:08:30.489Z,99054.78
2022-12-15T05:12:50.870Z,99033.00
2022-12-15T05:17:11.743Z,99046.97
2022-12-15T05:21:32.163Z,99070.06
2022-12-15T05:25:52.464Z,99076.75
2022-12-15T05:30:13.223Z,99065.47
2022-12-15T05:34:16.377Z,99065.13
2022-12-15T05:38:18.535Z,99083.66
2022-12-15T05:42:20.295Z,99075.25
2022-12-15T05:46:22.133Z,99083.31
2022-12-15T05:50:24.134Z,99079.94
2022-12-15T05:54:25.938Z,99095.78
2022-12-15T05:58:28.026Z,99106.66
2022-12-15T06:02:30.094Z,99105.41
2022-12-15T06:06:31.923Z,99110.06
2022-12-15T06:10:33.800Z,99121.94
2022-12-15T06:14:36.324Z,99110.72
2022-12-15T06:18:41.329Z,99136.78
2022-12-15T06:22:48.144Z,99136.03
2022-12-15T06:26:51.648Z,99126.00
2022-12-15T06:30:55.194Z,99141.53
2022-12-15T06:34:57.450Z,99134.28
2022-12-15T06:39:00.755Z,99160.22
2022-12-15T06:43:02.619Z,99161.47
2022-12-15T06:47:04.642Z,99181.63
2022-12-15T06:51:13.303Z,99173.50
2022-12-15T06:55:18.503Z,99183.16
2022-12-15T06:59:20.435Z,99186.75
2022-12-15T07:03:22.661Z,99192.78
2022-12-15T07:07:25.442Z,99189.78
2022-12-15T07:11:27.373Z,99196.28
2022-12-15T07:15:29.227Z,99194.06
2022-12-15T07:19:31.101Z,99210.28
2022-12-15T07:23:52.679Z,99210.94
2022-12-15T07:27:56.142Z,99218.94
2022-12-15T07:31:58.437Z,99225.63
2022-12-15T07:36:01.089Z,99218.44
2022-12-15T07:40:04.710Z,99225.56
2022-12-15T07:44:06.616Z,99233.84
2022-12-15T07:48:08.406Z,99252.81
2022-12-15T07:52:10.168Z,99252.59
2022-12-15T07:56:11.957Z,99260.31
2022-12-15T08:00:15.595Z,99265.56
2022-12-15T08:04:18.541Z,99250.13
2022-12-15T08:08:22.383Z,99258.69
2022-12-15T08:12:24.312Z,99244.75
2022-12-15T08:16:26.297Z,99248.78
2022-12-15T08:20:29.215Z,99251.28
2022-12-15T08:24:32.399Z,99257.75
2022-12-15T08:28:35.131Z,99268.16
2022-12-15T08:32:36.976Z,99273.25
2022-12-15T08:36:38.945Z,99271.41
2022-12-15T08:40:40.725Z,99285.13
2022-12-15T08:44:42.540Z,99283.13
2022-12-15T08:48:44.487Z,99285.03
2022-12-15T08:53:06.554Z,99286.38
2022-12-15T08:57:08.067Z,99291.66
2022-12-15T09:01:17.446Z,99292.06
2022-12-15T09:05:22.456Z,99282.13
2022-12-15T09:09:24.185Z,99286.38
2022-12-15T09:13:26.139Z,99287.19
2022-12-15T09:17:27.963Z,99291.81
2022-12-15T09:21:30.681Z,99287.47
2022-12-15T09:25:32.474Z,99284.38
2022-12-15T09:29:34.316Z,99289.19
2022-12-15T09:33:36.740Z,99296.22
2022-12-15T09:37:38.698Z,99289.88
2022-12-15T09:41:40.699Z,99300.31
2022-12-15T09:45:46.112Z,99288.75
2022-12-15T09:49:58.580Z,99302.03
2022-12-15T09:54:00.795Z,99304.34
2022-12-15T09:58:23.698Z,99304.59
2022-12-15T10:02:47.284Z,99311.03
2022-12-15T10:07:32.097Z,99313.94
2022-12-15T10:11:52.245Z,99324.78
2022-12-15T10:15:59.674Z,99322.63
2022-12-15T10:20:19.810Z,99318.84
2022-12-15T10:24:51.860Z,99331.91
2022-12-15T10:29:15.123Z,99328.53
2022-12-15T10:33:24.279Z,99345.09
2022-12-15T10:37:26.115Z,99336.38
2022-12-15T10:41:28.035Z,99331.78
2022-12-15T10:45:38.641Z,99341.69
2022-12-15T10:49:40.574Z,99342.94
2022-12-15T10:53:55.274Z,99349.41
2022-12-15T10:58:02.548Z,99339.44
2022-12-15T11:02:33.411Z,99337.31
2022-12-15T11:06:37.171Z,99334.00
2022-12-15T11:10:57.400Z,99333.22
2022-12-15T11:14:59.408Z,99323.81
2022-12-15T11:19:13.757Z,99335.13
2022-12-15T11:24:12.795Z,99336.28
2022-12-15T11:28:26.710Z,99330.50
2022-12-15T11:32:35.237Z,99315.97
2022-12-15T11:37:14.653Z,99318.19
2022-12-15T11:41:39.678Z,99325.28
2022-12-15T11:46:18.183Z,99324.97
2022-12-15T11:50:37.253Z,99323.13
2022-12-15T11:54:53.987Z,99326.69
2022-12-15T11:59:32.617Z,99319.19
2022-12-15T12:03:55.663Z,99316.22
2022-12-15T12:08:22.233Z,99311.16
2022-12-15T12:12:33.939Z,99319.41
2022-12-15T12:17:16.106Z,99319.78
2022-12-15T12:21:28.424Z,99302.69
2022-12-15T12:25:31.535Z,99284.06
2022-12-15T12:29:53.481Z,99283.22
2022-12-15T12:34:01.619Z,99286.91
2022-12-15T12:38:09.881Z,99286.31
2022-12-15T12:42:58.576Z,99285.97
2022-12-15T12:47:16.833Z,99288.09
2022-12-15T12:51:27.446Z,99299.16
2022-12-15T12:55:42.302Z,99309.59
2022-12-15T13:00:06.344Z,99300.81
2022-12-15T13:04:13.688Z,99296.31
2022-12-15T13:08:15.425Z,99301.25
2022-12-15T13:12:56.877Z,99295.31
2022-12-15T13:17:40.090Z,99293.41
2022-12-15T13:21:42.126Z,99296.53
2022-12-15T13:25:51.841Z,99288.03
2022-12-15T13:30:15.159Z,99285.06
2022-12-15T13:34:18.450Z,99281.09
2022-12-15T13:38:20.198Z,99288.63
2022-12-15T13:46:48.592Z,99294.84
2022-12-15T13:51:26.874Z,99308.66
2022-12-15T13:55:37.906Z,99302.63
2022-12-15T13:59:52.731Z,99319.28
2022-12-15T14:04:16.488Z,99302.63
2022-12-15T14:08:18.655Z,99329.16
2022-12-15T14:12:23.471Z,99331.34
2022-12-15T14:16:26.740Z,99332.22
2022-12-15T14:20:34.635Z,99313.59
2022-12-15T14:24:44.385Z,99321.94
2022-12-15T14:28:47.791Z,99315.03
2022-12-15T14:33:07.044Z,99312.53
2022-12-15T14:37:13.321Z,99314.28
2022-12-15T14:41:27.091Z,99329.16
2022-12-15T14:45:31.232Z,99323.31
2022-12-15T14:49:39.784Z,99314.72
2022-12-15T14:53:42.351Z,99318.78
2022-12-15T14:57:45.362Z,99335.38
2022-12-15T15:01:58.561Z,99314.56
2022-12-15T15:03:07.531Z,99296.50
2022-12-15T15:06:05.569Z,99317.63
2022-12-15T15:10:24.087Z,99311.75
2022-12-15T15:14:37.694Z,99311.50
2022-12-15T15:18:39.418Z,99315.94
2022-12-15T15:22:43.628Z,99320.09
2022-12-15T15:26:45.430Z,99325.75
2022-12-15T15:31:00.378Z,99327.53
2022-12-15T15:35:02.233Z,99336.94
2022-12-15T15:39:15.403Z,99341.44
2022-12-15T15:43:18.398Z,99329.09
2022-12-15T15:47:26.059Z,99329.78
2022-12-15T15:51:29.134Z,99324.28
2022-12-15T15:55:36.149Z,99318.78
2022-12-15T15:59:42.525Z,99326.47
2022-12-15T16:03:44.463Z,99330.09
2022-12-15T16:07:46.833Z,99337.28
2022-12-15T16:11:48.646Z,99338.47
2022-12-15T16:15:50.539Z,99334.50
2022-12-15T16:19:52.381Z,99342.88
2022-12-15T16:23:54.213Z,99345.75
2022-12-15T16:27:55.944Z,99358.41
2022-12-15T16:31:57.919Z,99357.47
2022-12-15T16:35:59.871Z,99341.59
2022-12-15T16:40:04.001Z,99343.44
2022-12-15T16:44:10.971Z,99342.06
2022-12-15T16:48:13.110Z,99377.47
2022-12-15T16:52:19.647Z,99385.75
2022-12-15T16:56:21.623Z,99383.22
2022-12-15T17:00:31.297Z,99391.16
2022-12-15T17:04:33.063Z,99384.47
2022-12-15T17:08:47.152Z,99373.00
2022-12-15T17:12:49.207Z,99370.91
2022-12-15T17:16:50.986Z,99382.09
2022-12-15T17:21:03.293Z,99373.84
2022-12-15T17:25:05.940Z,99387.97
2022-12-15T17:29:22.759Z,99389.56
2022-12-15T17:33:33.884Z,99376.94
2022-12-15T17:37:38.847Z,99386.78
2022-12-15T17:46:02.873Z,99366.66
2022-12-15T17:50:07.790Z,99368.47
2022-12-15T17:54:16.320Z,99387.00
2022-12-15T17:58:29.330Z,99373.16
2022-12-15T18:02:37.940Z,99355.91
2022-12-15T18:06:40.654Z,99368.66
2022-12-15T18:10:45.234Z,99360.78
2022-12-15T18:15:19.552Z,99349.56
2022-12-15T18:19:34.709Z,99348.09
2022-12-15T18:23:39.873Z,99358.66
2022-12-15T18:28:01.715Z,99353.81
2022-12-15T18:32:05.358Z,99364.44
2022-12-15T18:36:16.476Z,99360.97
2022-12-15T18:40:22.380Z,99381.84
2022-12-15T18:44:30.176Z,99389.19
2022-12-15T18:48:35.846Z,99369.53
2022-12-15T18:52:38.096Z,99383.75
2022-12-15T18:56:42.342Z,99364.34
2022-12-15T19:00:44.392Z,99365.06
2022-12-15T19:04:46.779Z,99371.19
2022-12-15T19:08:48.820Z,99355.88
2022-12-15T19:12:55.275Z,99362.88
2022-12-15T19:17:20.020Z,99359.22
2022-12-15T19:21:42.842Z,99366.38
2022-12-15T19:25:45.586Z,99362.06
2022-12-15T19:29:47.897Z,99355.09
2022-12-15T19:33:49.746Z,99356.50
2022-12-15T19:37:55.140Z,99358.16
2022-12-15T19:41:57.408Z,99363.16
2022-12-15T19:45:59.333Z,99371.69
2022-12-15T19:50:01.182Z,99363.66
2022-12-15T19:54:03.558Z,99375.75
2022-12-15T19:58:35.102Z,99368.50
2022-12-15T20:02:37.252Z,99346.31
2022-12-15T20:06:39.277Z,99344.50
2022-12-15T20:10:41.075Z,99352.47
2022-12-15T20:14:42.955Z,99350.47
2022-12-15T20:18:49.386Z,99343.75
2022-12-15T20:22:55.466Z,99347.50
2022-12-15T20:27:11.678Z,99348.94
2022-12-15T20:31:18.095Z,99338.78
2022-12-15T20:35:21.581Z,99332.66
2022-12-15T20:39:26.917Z,99327.78
2022-12-15T20:43:35.001Z,99323.44
2022-12-15T20:47:37.383Z,99300.25
2022-12-15T20:51:39.374Z,99291.53
2022-12-15T20:55:41.417Z,99301.09
2022-12-15T20:59:43.145Z,99293.44
2022-12-15T21:03:46.132Z,99282.06
2022-12-15T21:07:48.634Z,99273.66
2022-12-15T21:11:55.076Z,99287.69
2022-12-15T21:15:57.167Z,99291.22
2022-12-15T21:19:58.985Z,99276.66
2022-12-15T21:24:02.423Z,99267.34
2022-12-15T21:28:11.918Z,99262.06
2022-12-15T21:32:13.890Z,99255.75
2022-12-15T21:36:18.006Z,99260.38
2022-12-15T21:40:22.026Z,99258.75
2022-12-15T21:44:23.840Z,99254.13
2022-12-15T21:48:44.251Z,99242.16
2022-12-15T21:52:46.336Z,99259.16
2022-12-15T21:56:48.522Z,99265.00
2022-12-15T22:00:53.051Z,99254.69
2022-12-15T22:04:56.428Z,99235.13
2022-12-15T22:08:58.762Z,99259.09
2022-12-15T22:13:00.732Z,99256.59
2022-12-15T22:17:13.093Z,99268.31
2022-12-15T22:21:15.560Z,99275.41
2022-12-15T22:25:22.932Z,99281.88
2022-12-15T22:29:25.038Z,99262.28
2022-12-15T22:33:27.566Z,99279.91
2022-12-15T22:37:29.529Z,99276.41
2022-12-15T22:41:31.393Z,99276.00
2022-12-15T22:45:33.514Z,99283.25
2022-12-15T22:49:38.037Z,99290.63
2022-12-15T22:53:39.874Z,99281.94
2022-12-15T22:57:42.014Z,99284.84
2022-12-15T23:01:44.156Z,99282.34
2022-12-15T23:05:49.515Z,99278.47
2022-12-15T23:10:11.239Z,99290.25
2022-12-15T23:14:17.411Z,99309.41
2022-12-15T23:18:19.428Z,99297.03
2022-12-15T23:22:21.535Z,99295.69
2022-12-15T23:26:23.867Z,99283.56
2022-12-15T23:30:25.998Z,99268.13
2022-12-15T23:34:27.830Z,99258.34
2022-12-15T23:38:29.744Z,99248.34
2022-12-15T23:42:31.743Z,99250.41
2022-12-15T23:46:33.947Z,99268.78
2022-12-15T23:50:36.029Z,99250.25
2022-12-15T23:54:37.835Z,99244.53
2022-12-15T23:58:40.431Z,99261.34
